createdAt,value
2022-09-13T00:00:09.946Z,2.30
2022-09-13T00:01:09.956Z,2.20
2022-09-13T00:02:09.938Z,2.20
2022-09-13T00:03:09.853Z,2.30
2022-09-13T00:04:09.847Z,2.20
2022-09-13T00:05:09.842Z,2.30
2022-09-13T00:06:09.839Z,2.10
2022-09-13T00:07:09.835Z,2.10
2022-09-13T00:08:09.873Z,2.20
2022-09-13T00:09:09.821Z,2.10
2022-09-13T00:10:09.816Z,2.10
2022-09-13T00:11:09.809Z,2.10
2022-09-13T00:12:09.804Z,2.30
2022-09-13T00:13:09.814Z,2.10
2022-09-13T00:14:09.792Z,2.00
2022-09-13T00:15:09.806Z,2.10
2022-09-13T00:16:09.885Z,2.40
2022-09-13T00:17:09.780Z,1.90
2022-09-13T00:18:09.765Z,2.30
2022-09-13T00:19:09.773Z,2.20
2022-09-13T00:20:09.760Z,2.20
2022-09-13T00:21:09.756Z,2.30
2022-09-13T00:22:09.748Z,2.10
2022-09-13T00:23:09.745Z,2.20
2022-09-13T00:24:09.731Z,2.20
2022-09-13T00:25:09.730Z,2.10
2022-09-13T00:26:09.722Z,2.20
2022-09-13T00:27:09.725Z,2.10
2022-09-13T00:28:09.717Z,2.20
2022-09-13T00:29:09.732Z,2.30
2022-09-13T00:30:09.702Z,2.30
2022-09-13T00:31:09.701Z,2.10
2022-09-13T00:32:09.687Z,2.30
2022-09-13T00:33:09.689Z,2.20
2022-09-13T00:34:09.682Z,2.20
2022-09-13T00:35:09.695Z,2.10
2022-09-13T00:36:09.671Z,2.20
2022-09-13T00:37:09.666Z,2.30
2022-09-13T00:38:09.659Z,2.20
2022-09-13T00:39:09.656Z,1.90
2022-09-13T00:40:09.683Z,2.20
2022-09-13T00:41:09.642Z,2.00
2022-09-13T00:42:09.638Z,2.10
2022-09-13T00:43:09.654Z,2.20
2022-09-13T00:44:09.631Z,2.10
2022-09-13T00:45:09.621Z,2.10
2022-09-13T00:46:09.674Z,2.50
2022-09-13T00:47:09.611Z,2.30
2022-09-13T00:48:09.606Z,2.30
2022-09-13T00:49:09.597Z,2.10
2022-09-13T00:50:09.595Z,2.20
2022-09-13T00:51:09.587Z,2.30
2022-09-13T00:52:09.595Z,2.40
2022-09-13T00:53:09.578Z,2.40
2022-09-13T00:54:09.587Z,2.00
2022-09-13T00:55:09.565Z,2.40
2022-09-13T00:56:09.565Z,2.30
2022-09-13T00:57:09.551Z,2.20
2022-09-13T00:58:09.548Z,2.10
2022-09-13T00:59:09.539Z,2.20
2022-09-13T01:00:09.538Z,2.30
2022-09-13T01:01:09.571Z,2.20
2022-09-13T01:02:09.573Z,2.10
2022-09-13T01:03:09.521Z,2.40
2022-09-13T01:04:12.583Z,2.20
2022-09-13T01:05:09.508Z,2.20
2022-09-13T01:06:16.672Z,2.10
2022-09-13T01:08:13.495Z,2.20
2022-09-13T01:09:13.485Z,2.20
2022-09-13T01:11:17.459Z,2.20
2022-09-13T01:12:17.441Z,2.10
2022-09-13T01:14:21.447Z,2.20
2022-09-13T01:15:21.433Z,2.30
2022-09-13T01:17:25.407Z,2.10
2022-09-13T01:18:25.398Z,2.10
2022-09-13T01:20:29.389Z,2.20
2022-09-13T01:21:29.373Z,2.20
2022-09-13T01:23:33.387Z,2.10
2022-09-13T01:24:33.376Z,2.20
2022-09-13T01:26:26.291Z,2.10
2022-09-13T01:27:26.277Z,2.30
2022-09-13T01:29:30.295Z,2.20
2022-09-13T01:30:30.282Z,2.10
2022-09-13T01:32:23.414Z,2.30
2022-09-13T01:33:23.408Z,2.10
2022-09-13T01:35:27.401Z,2.20
2022-09-13T01:36:27.385Z,2.00
2022-09-13T01:38:31.384Z,2.10
2022-09-13T01:39:31.378Z,2.10
2022-09-13T01:41:35.359Z,2.20
2022-09-13T01:42:35.346Z,2.40
2022-09-13T01:44:29.465Z,2.50
2022-09-13T01:45:29.517Z,2.20
2022-09-13T01:47:33.442Z,2.10
2022-09-13T01:48:33.424Z,2.20
2022-09-13T01:50:37.415Z,2.40
2022-09-13T01:51:37.400Z,2.40
2022-09-13T01:53:41.514Z,2.30
2022-09-13T01:54:41.456Z,2.20
2022-09-13T01:56:34.387Z,2.30
2022-09-13T01:57:34.372Z,2.30
2022-09-13T01:59:38.356Z,2.40
2022-09-13T02:00:38.345Z,2.40
2022-09-13T02:02:31.661Z,2.50
2022-09-13T02:03:31.607Z,2.40
2022-09-13T02:05:35.603Z,2.30
2022-09-13T02:06:35.586Z,2.40
2022-09-13T02:08:28.696Z,2.40
2022-09-13T02:09:28.688Z,2.40
2022-09-13T02:11:32.915Z,2.30
2022-09-13T02:12:32.899Z,2.50
2022-09-13T02:14:36.887Z,2.50
2022-09-13T02:15:36.872Z,2.50
2022-09-13T02:17:29.972Z,2.50
2022-09-13T02:18:29.963Z,2.50
2022-09-13T02:20:33.972Z,2.60
2022-09-13T02:21:33.949Z,2.50
2022-09-13T02:22:33.947Z,2.70
2022-09-13T02:23:33.940Z,2.80
2022-09-13T02:24:33.933Z,2.50
2022-09-13T02:25:33.930Z,2.50
2022-09-13T02:26:33.922Z,2.50
2022-09-13T02:27:33.917Z,2.50
2022-09-13T02:28:33.909Z,2.30
2022-09-13T02:29:33.904Z,2.30
2022-09-13T02:30:33.899Z,2.50
2022-09-13T02:31:33.941Z,2.40
2022-09-13T02:32:33.885Z,2.40
2022-09-13T02:33:33.880Z,2.40
2022-09-13T02:34:33.875Z,2.40
2022-09-13T02:35:33.869Z,2.30
2022-09-13T02:36:33.864Z,2.50
2022-09-13T02:37:33.856Z,2.50
2022-09-13T02:38:33.852Z,2.40
2022-09-13T02:39:33.915Z,2.40
2022-09-13T02:40:33.838Z,2.30
2022-09-13T02:41:33.833Z,2.60
2022-09-13T02:42:33.827Z,2.40
2022-09-13T02:43:33.823Z,2.30
2022-09-13T02:44:33.815Z,2.40
2022-09-13T02:45:33.819Z,2.30
2022-09-13T02:46:33.802Z,2.40
2022-09-13T02:47:33.798Z,2.30
2022-09-13T02:48:37.175Z,2.50
2022-09-13T02:49:33.785Z,2.40
2022-09-13T02:50:33.782Z,2.60
2022-09-13T02:51:33.774Z,2.60
2022-09-13T02:52:33.766Z,2.70
2022-09-13T02:53:33.759Z,2.60
2022-09-13T02:54:33.755Z,2.50
2022-09-13T02:55:33.750Z,2.50
2022-09-13T02:56:33.743Z,2.50
2022-09-13T02:57:33.737Z,2.50
2022-09-13T02:58:33.732Z,2.60
2022-09-13T02:59:33.726Z,2.60
2022-09-13T03:00:33.719Z,2.50
2022-09-13T03:01:33.748Z,2.70
2022-09-13T03:02:33.745Z,2.60
2022-09-13T03:03:33.702Z,2.60
2022-09-13T03:04:33.694Z,2.80
2022-09-13T03:05:33.696Z,2.70
2022-09-13T03:06:33.684Z,2.70
2022-09-13T03:07:33.678Z,2.60
2022-09-13T03:08:33.671Z,2.70
2022-09-13T03:09:33.667Z,2.90
2022-09-13T03:10:33.661Z,2.70
2022-09-13T03:11:33.655Z,2.70
2022-09-13T03:12:33.652Z,2.80
2022-09-13T03:13:33.641Z,2.50
2022-09-13T03:14:33.636Z,2.80
2022-09-13T03:15:33.630Z,3.00
2022-09-13T03:16:33.693Z,3.00
2022-09-13T03:17:33.620Z,3.20
2022-09-13T03:18:33.614Z,3.00
2022-09-13T03:19:33.607Z,2.90
2022-09-13T03:20:33.600Z,3.00
2022-09-13T03:21:33.594Z,2.70
2022-09-13T03:22:33.588Z,3.00
2022-09-13T03:23:33.583Z,3.10
2022-09-13T03:24:33.576Z,2.80
2022-09-13T03:25:33.571Z,2.80
2022-09-13T03:26:33.565Z,3.10
2022-09-13T03:27:33.559Z,3.10
2022-09-13T03:28:33.555Z,3.00
2022-09-13T03:29:33.548Z,3.30
2022-09-13T03:30:33.542Z,3.20
2022-09-13T03:31:33.617Z,3.20
2022-09-13T03:32:33.527Z,3.00
2022-09-13T03:33:33.526Z,3.00
2022-09-13T03:34:33.518Z,3.20
2022-09-13T03:35:33.517Z,2.90
2022-09-13T03:36:33.506Z,3.10
2022-09-13T03:37:33.500Z,3.20
2022-09-13T03:38:33.493Z,2.70
2022-09-13T03:39:33.490Z,3.00
2022-09-13T03:40:33.482Z,2.70
2022-09-13T03:41:33.478Z,2.80
2022-09-13T03:42:33.471Z,3.00
2022-09-13T03:43:33.520Z,3.40
2022-09-13T03:44:33.459Z,3.10
2022-09-13T03:45:33.496Z,3.30
2022-09-13T03:46:33.447Z,3.30
2022-09-13T03:47:33.443Z,3.20
2022-09-13T03:48:33.436Z,3.50
2022-09-13T03:49:33.429Z,3.70
2022-09-13T03:50:33.423Z,3.50
2022-09-13T03:51:33.418Z,3.60
2022-09-13T03:52:33.414Z,3.80
2022-09-13T03:53:33.433Z,3.60
2022-09-13T03:54:33.400Z,3.60
2022-09-13T03:55:33.408Z,3.80
2022-09-13T03:56:33.388Z,3.60
2022-09-13T03:57:33.382Z,3.90
2022-09-13T03:58:33.377Z,4.00
2022-09-13T03:59:33.373Z,4.00
2022-09-13T04:00:33.365Z,3.80
2022-09-13T04:01:33.392Z,3.90
2022-09-13T04:02:33.419Z,4.00
2022-09-13T04:03:33.349Z,3.80
2022-09-13T04:04:33.342Z,4.10
2022-09-13T04:05:33.337Z,4.20
2022-09-13T04:06:33.331Z,3.60
2022-09-13T04:07:33.326Z,3.70
2022-09-13T04:08:33.321Z,3.70
2022-09-13T04:09:33.314Z,3.70
2022-09-13T04:10:33.309Z,3.70
2022-09-13T04:11:33.307Z,3.70
2022-09-13T04:12:33.296Z,4.00
2022-09-13T04:13:33.292Z,3.70
2022-09-13T04:14:33.286Z,3.70
2022-09-13T04:15:33.325Z,3.90
2022-09-13T04:16:33.323Z,4.20
2022-09-13T04:17:33.268Z,3.90
2022-09-13T04:18:33.263Z,4.00
2022-09-13T04:19:33.257Z,4.00
2022-09-13T04:20:33.253Z,3.90
2022-09-13T04:21:33.246Z,3.90
2022-09-13T04:22:33.241Z,4.00
2022-09-13T04:23:33.235Z,4.00
2022-09-13T04:24:33.227Z,3.90
2022-09-13T04:25:33.224Z,4.10
2022-09-13T04:26:33.217Z,4.20
2022-09-13T04:27:33.213Z,4.40
2022-09-13T04:28:33.207Z,4.60
2022-09-13T04:29:33.216Z,4.50
2022-09-13T04:30:33.195Z,4.60
2022-09-13T04:31:33.271Z,4.50
2022-09-13T04:32:33.186Z,4.40
2022-09-13T04:33:33.179Z,4.70
2022-09-13T04:34:33.171Z,4.60
2022-09-13T04:35:33.166Z,4.40
2022-09-13T04:36:33.161Z,4.60
2022-09-13T04:37:33.158Z,5.00
2022-09-13T04:38:33.153Z,4.80
2022-09-13T04:39:33.149Z,4.80
2022-09-13T04:40:33.137Z,5.00
2022-09-13T04:41:33.132Z,4.70
2022-09-13T04:42:33.130Z,5.00
2022-09-13T04:43:33.123Z,4.80
2022-09-13T04:44:33.115Z,4.60
2022-09-13T04:45:33.142Z,4.80
2022-09-13T04:46:33.106Z,4.60
2022-09-13T04:47:33.100Z,4.90
2022-09-13T04:48:33.094Z,4.70
2022-09-13T04:49:33.087Z,4.80
2022-09-13T04:50:33.082Z,4.80
2022-09-13T04:51:33.077Z,4.70
2022-09-13T04:52:33.073Z,4.20
2022-09-13T04:53:33.064Z,4.80
2022-09-13T04:54:33.057Z,4.60
2022-09-13T04:55:33.058Z,4.50
2022-09-13T04:56:33.051Z,4.50
2022-09-13T04:57:33.044Z,4.60
2022-09-13T04:58:33.036Z,4.90
2022-09-13T04:59:33.035Z,4.60
2022-09-13T05:00:33.025Z,4.40
2022-09-13T05:01:33.059Z,4.60
2022-09-13T05:02:33.057Z,4.40
2022-09-13T05:03:33.010Z,4.60
2022-09-13T05:04:33.003Z,4.60
2022-09-13T05:05:33.000Z,4.40
2022-09-13T05:06:32.994Z,4.50
2022-09-13T05:07:32.987Z,4.50
2022-09-13T05:08:32.983Z,4.50
2022-09-13T05:09:32.979Z,4.80
2022-09-13T05:10:32.970Z,5.00
2022-09-13T05:11:32.965Z,4.80
2022-09-13T05:12:32.960Z,4.90
2022-09-13T05:13:32.953Z,4.80
2022-09-13T05:14:32.952Z,4.90
2022-09-13T05:15:32.943Z,4.70
2022-09-13T05:16:32.939Z,4.80
2022-09-13T05:17:32.931Z,4.70
2022-09-13T05:18:32.933Z,4.70
2022-09-13T05:19:33.033Z,4.70
2022-09-13T05:20:32.915Z,4.80
2022-09-13T05:21:32.912Z,4.80
2022-09-13T05:22:32.908Z,4.80
2022-09-13T05:23:32.905Z,5.00
2022-09-13T05:24:32.899Z,4.90
2022-09-13T05:25:32.888Z,5.10
2022-09-13T05:26:32.888Z,5.10
2022-09-13T05:27:32.882Z,4.90
2022-09-13T05:28:32.873Z,5.00
2022-09-13T05:29:32.867Z,5.00
2022-09-13T05:30:32.866Z,5.00
2022-09-13T05:31:32.912Z,5.30
2022-09-13T05:32:32.854Z,5.10
2022-09-13T05:33:32.844Z,5.10
2022-09-13T05:34:32.841Z,5.10
2022-09-13T05:35:32.837Z,5.40
2022-09-13T05:36:32.829Z,5.20
2022-09-13T05:37:32.823Z,5.20
2022-09-13T05:38:32.821Z,5.30
2022-09-13T05:39:48.355Z,5.10
2022-09-13T05:40:32.853Z,5.30
2022-09-13T05:41:32.803Z,5.10
2022-09-13T05:42:32.799Z,5.50
2022-09-13T05:43:32.794Z,5.10
2022-09-13T05:44:32.788Z,5.30
2022-09-13T05:45:32.777Z,5.30
2022-09-13T05:46:32.867Z,5.60
2022-09-13T05:47:32.772Z,5.20
2022-09-13T05:48:32.765Z,5.30
2022-09-13T05:49:32.763Z,5.20
2022-09-13T05:50:57.208Z,5.50
2022-09-13T05:51:32.820Z,5.30
2022-09-13T05:52:32.745Z,5.30
2022-09-13T05:53:32.739Z,5.20
2022-09-13T05:54:32.733Z,5.30
2022-09-13T05:55:32.730Z,5.60
2022-09-13T05:56:32.726Z,5.40
2022-09-13T05:57:32.720Z,5.30
2022-09-13T05:58:32.715Z,5.30
2022-09-13T05:59:32.709Z,5.40
2022-09-13T06:00:32.704Z,5.90
2022-09-13T06:01:32.891Z,5.90
2022-09-13T06:02:32.772Z,6.00
2022-09-13T06:03:32.691Z,6.10
2022-09-13T06:04:32.685Z,6.50
2022-09-13T06:05:32.678Z,6.60
2022-09-13T06:06:32.673Z,6.30
2022-09-13T06:07:32.670Z,6.60
2022-09-13T06:08:32.660Z,7.00
2022-09-13T06:09:32.659Z,6.70
2022-09-13T06:10:32.650Z,6.70
2022-09-13T06:11:32.647Z,6.90
2022-09-13T06:12:32.640Z,6.80
2022-09-13T06:13:32.642Z,7.30
2022-09-13T06:14:32.629Z,7.40
2022-09-13T06:15:32.627Z,7.10
2022-09-13T06:16:32.649Z,7.20
2022-09-13T06:17:32.615Z,7.40
2022-09-13T06:18:32.609Z,7.40
2022-09-13T06:19:32.605Z,7.90
2022-09-13T06:20:32.602Z,8.30
2022-09-13T06:21:32.597Z,8.40
2022-09-13T06:22:32.590Z,9.00
2022-09-13T06:23:32.585Z,8.80
2022-09-13T06:24:32.577Z,8.60
2022-09-13T06:25:32.573Z,8.50
2022-09-13T06:26:32.570Z,9.10
2022-09-13T06:27:32.565Z,9.30
2022-09-13T06:28:36.774Z,9.90
2022-09-13T06:29:32.553Z,10.00
2022-09-13T06:30:32.545Z,10.60
2022-09-13T06:31:32.603Z,10.80
2022-09-13T06:32:32.537Z,10.50
2022-09-13T06:33:32.532Z,10.50
2022-09-13T06:34:32.528Z,10.70
2022-09-13T06:35:32.523Z,10.70
2022-09-13T06:36:32.515Z,10.50
2022-09-13T06:37:32.511Z,10.70
2022-09-13T06:38:32.505Z,10.70
2022-09-13T06:39:32.500Z,10.80
2022-09-13T06:40:32.562Z,10.70
2022-09-13T06:41:32.489Z,11.00
2022-09-13T06:42:32.488Z,11.40
2022-09-13T06:43:32.480Z,11.40
2022-09-13T06:44:32.478Z,10.90
2022-09-13T06:45:32.469Z,10.80
2022-09-13T06:46:32.575Z,10.70
2022-09-13T06:47:32.523Z,11.00
2022-09-13T06:48:32.457Z,10.80
2022-09-13T06:49:32.447Z,10.50
2022-09-13T06:50:32.445Z,10.10
2022-09-13T06:51:32.454Z,11.00
2022-09-13T06:52:32.433Z,10.80
2022-09-13T06:53:32.427Z,10.50
2022-09-13T06:54:32.423Z,11.00
2022-09-13T06:55:32.411Z,10.80
2022-09-13T06:56:32.413Z,10.90
2022-09-13T06:57:32.405Z,10.50
2022-09-13T06:58:32.409Z,10.80
2022-09-13T06:59:32.399Z,10.90
2022-09-13T07:00:32.433Z,11.40
2022-09-13T07:01:32.495Z,10.80
2022-09-13T07:02:32.382Z,10.80
2022-09-13T07:03:32.378Z,10.40
2022-09-13T07:04:32.369Z,10.80
2022-09-13T07:05:39.535Z,10.90
2022-09-13T07:07:25.803Z,10.90
2022-09-13T07:08:25.782Z,10.30
2022-09-13T07:09:25.780Z,9.90
2022-09-13T07:10:25.775Z,10.60
2022-09-13T07:11:25.773Z,10.20
2022-09-13T07:12:25.764Z,10.20
2022-09-13T07:13:25.776Z,10.00
2022-09-13T07:14:25.754Z,10.10
2022-09-13T07:15:25.754Z,9.90
2022-09-13T07:16:25.758Z,9.70
2022-09-13T07:17:28.516Z,9.80
2022-09-13T07:18:25.736Z,9.80
2022-09-13T07:19:25.733Z,10.10
2022-09-13T07:20:25.728Z,10.30
2022-09-13T07:21:25.729Z,10.30
2022-09-13T07:22:25.718Z,9.80
2022-09-13T07:23:25.714Z,9.50
2022-09-13T07:24:25.714Z,9.50
2022-09-13T07:25:25.711Z,9.80
2022-09-13T07:26:25.700Z,10.20
2022-09-13T07:27:25.698Z,9.40
2022-09-13T07:28:27.499Z,9.50
2022-09-13T07:29:25.689Z,9.70
2022-09-13T07:30:25.684Z,9.60
2022-09-13T07:31:25.698Z,9.80
2022-09-13T07:32:25.673Z,9.40
2022-09-13T07:33:25.669Z,9.40
2022-09-13T07:34:25.657Z,9.20
2022-09-13T07:35:25.659Z,9.20
2022-09-13T07:36:25.654Z,9.50
2022-09-13T07:37:25.647Z,9.30
2022-09-13T07:38:25.655Z,9.40
2022-09-13T07:39:25.641Z,9.40
2022-09-13T07:40:25.677Z,9.30
2022-09-13T07:41:25.632Z,9.30
2022-09-13T07:42:25.639Z,9.30
2022-09-13T07:43:25.624Z,9.40
2022-09-13T07:44:25.623Z,9.00
2022-09-13T07:45:25.615Z,8.70
2022-09-13T07:46:25.659Z,8.70
2022-09-13T07:47:25.608Z,8.90
2022-09-13T07:48:25.603Z,8.70
2022-09-13T07:49:25.597Z,8.90
2022-09-13T07:50:25.595Z,8.50
2022-09-13T07:51:25.590Z,8.50
2022-09-13T07:52:25.586Z,8.50
2022-09-13T07:53:25.583Z,8.10
2022-09-13T07:54:25.581Z,8.40
2022-09-13T07:55:25.570Z,8.30
2022-09-13T07:56:25.572Z,8.40
2022-09-13T07:57:25.566Z,8.60
2022-09-13T07:58:25.565Z,8.60
2022-09-13T07:59:29.557Z,8.20
2022-09-13T08:00:26.245Z,8.20
2022-09-13T08:01:25.601Z,8.10
2022-09-13T08:02:25.593Z,8.40
2022-09-13T08:03:25.541Z,8.20
2022-09-13T08:04:25.540Z,8.10
2022-09-13T08:05:25.536Z,8.10
2022-09-13T08:06:25.533Z,7.80
2022-09-13T08:07:25.535Z,8.00
2022-09-13T08:08:25.533Z,8.10
2022-09-13T08:09:25.525Z,7.80
2022-09-13T08:10:25.518Z,8.10
2022-09-13T08:11:25.523Z,7.80
2022-09-13T08:12:25.509Z,7.70
2022-09-13T08:13:25.509Z,7.40
2022-09-13T08:14:25.506Z,7.70
2022-09-13T08:15:25.573Z,8.00
2022-09-13T08:16:25.501Z,7.70
2022-09-13T08:17:25.496Z,7.90
2022-09-13T08:18:25.493Z,8.10
2022-09-13T08:19:25.490Z,7.70
2022-09-13T08:20:25.486Z,7.80
2022-09-13T08:21:25.482Z,7.90
2022-09-13T08:22:25.478Z,7.80
2022-09-13T08:23:25.474Z,7.50
2022-09-13T08:24:25.471Z,7.90
2022-09-13T08:25:25.469Z,7.60
2022-09-13T08:26:25.468Z,7.80
2022-09-13T08:27:25.462Z,7.80
2022-09-13T08:28:27.639Z,8.20
2022-09-13T08:29:25.455Z,7.70
2022-09-13T08:30:25.456Z,8.40
2022-09-13T08:31:25.496Z,7.90
2022-09-13T08:32:25.446Z,8.20
2022-09-13T08:33:25.445Z,7.90
2022-09-13T08:34:25.442Z,7.70
2022-09-13T08:35:25.438Z,7.70
2022-09-13T08:36:25.448Z,8.10
2022-09-13T08:37:25.438Z,8.10
2022-09-13T08:38:25.431Z,7.70
2022-09-13T08:39:25.427Z,7.70
2022-09-13T08:40:25.460Z,7.60
2022-09-13T08:41:25.422Z,7.40
2022-09-13T08:42:25.418Z,7.90
2022-09-13T08:43:25.416Z,8.00
2022-09-13T08:44:25.413Z,7.80
2022-09-13T08:45:25.412Z,7.60
2022-09-13T08:46:25.429Z,7.50
2022-09-13T08:47:25.473Z,7.50
2022-09-13T08:48:25.404Z,7.20
2022-09-13T08:49:25.403Z,7.70
2022-09-13T08:50:25.398Z,7.50
2022-09-13T08:51:25.394Z,7.70
2022-09-13T08:52:25.391Z,7.50
2022-09-13T08:53:25.393Z,7.30
2022-09-13T08:54:25.388Z,7.20
2022-09-13T08:55:25.384Z,7.10
2022-09-13T08:56:25.384Z,7.20
2022-09-13T08:57:25.377Z,7.20
2022-09-13T08:58:25.380Z,6.90
2022-09-13T08:59:25.377Z,7.20
2022-09-13T09:00:25.373Z,7.10
2022-09-13T09:01:25.401Z,6.70
2022-09-13T09:02:25.390Z,7.60
2022-09-13T09:03:25.364Z,7.20
2022-09-13T09:04:25.363Z,7.40
2022-09-13T09:05:25.361Z,6.90
2022-09-13T09:06:25.352Z,6.80
2022-09-13T09:07:25.353Z,7.00
2022-09-13T09:08:25.354Z,6.70
2022-09-13T09:09:25.349Z,6.60
2022-09-13T09:10:25.346Z,6.80
2022-09-13T09:11:25.345Z,6.80
2022-09-13T09:12:25.343Z,6.90
2022-09-13T09:13:25.342Z,6.70
2022-09-13T09:14:25.340Z,6.90
2022-09-13T09:15:25.334Z,6.80
2022-09-13T09:16:25.334Z,6.80
2022-09-13T09:17:25.330Z,7.00
2022-09-13T09:18:25.330Z,6.70
2022-09-13T09:19:25.327Z,7.10
2022-09-13T09:20:25.328Z,6.80
2022-09-13T09:21:25.326Z,6.90
2022-09-13T09:22:25.320Z,6.90
2022-09-13T09:23:25.314Z,6.80
2022-09-13T09:24:25.320Z,6.60
2022-09-13T09:25:25.308Z,6.80
2022-09-13T09:26:25.309Z,6.80
2022-09-13T09:27:25.394Z,6.50
2022-09-13T09:28:25.310Z,6.60
2022-09-13T09:29:25.368Z,6.70
2022-09-13T09:30:25.308Z,6.70
2022-09-13T09:31:25.338Z,6.60
2022-09-13T09:32:25.295Z,6.60
2022-09-13T09:33:25.294Z,6.20
2022-09-13T09:34:25.309Z,6.00
2022-09-13T09:35:25.290Z,6.20
2022-09-13T09:36:25.286Z,6.40
2022-09-13T09:37:25.285Z,5.90
2022-09-13T09:38:25.287Z,6.10
2022-09-13T09:39:25.289Z,6.10
2022-09-13T09:40:29.725Z,5.90
2022-09-13T09:41:25.284Z,5.50
2022-09-13T09:42:25.278Z,5.80
2022-09-13T09:43:25.275Z,5.70
2022-09-13T09:44:25.274Z,6.00
2022-09-13T09:45:25.272Z,5.80
2022-09-13T09:46:25.311Z,5.70
2022-09-13T09:47:29.277Z,6.00
2022-09-13T09:48:25.267Z,5.90
2022-09-13T09:49:25.265Z,5.90
2022-09-13T09:50:25.264Z,6.00
2022-09-13T09:51:25.261Z,6.30
2022-09-13T09:52:25.261Z,5.90
2022-09-13T09:53:25.259Z,5.80
2022-09-13T09:54:25.258Z,5.70
2022-09-13T09:55:25.259Z,6.10
2022-09-13T09:56:25.256Z,6.00
2022-09-13T09:57:25.250Z,6.30
2022-09-13T09:58:25.252Z,6.00
2022-09-13T09:59:25.265Z,6.20
2022-09-13T10:00:25.248Z,6.00
2022-09-13T10:01:25.299Z,5.80
2022-09-13T10:02:25.282Z,5.90
2022-09-13T10:03:25.245Z,6.10
2022-09-13T10:04:25.242Z,6.00
2022-09-13T10:05:25.242Z,6.20
2022-09-13T10:06:25.240Z,6.30
2022-09-13T10:07:25.238Z,6.30
2022-09-13T10:08:25.243Z,6.50
2022-09-13T10:09:25.239Z,6.50
2022-09-13T10:10:25.235Z,6.50
2022-09-13T10:11:25.232Z,6.30
2022-09-13T10:12:25.233Z,6.20
2022-09-13T10:13:29.706Z,5.80
2022-09-13T10:14:25.229Z,6.20
2022-09-13T10:15:25.226Z,6.40
2022-09-13T10:16:25.303Z,5.90
2022-09-13T10:17:25.225Z,6.10
2022-09-13T10:18:44.432Z,5.80
2022-09-13T10:19:25.229Z,6.10
2022-09-13T10:20:25.226Z,5.80
2022-09-13T10:21:25.221Z,5.80
2022-09-13T10:22:25.218Z,5.60
2022-09-13T10:23:25.219Z,5.60
2022-09-13T10:24:25.209Z,5.60
2022-09-13T10:25:25.214Z,6.00
2022-09-13T10:26:25.218Z,6.10
2022-09-13T10:27:25.211Z,6.10
2022-09-13T10:28:25.208Z,5.70
2022-09-13T10:29:25.209Z,6.20
2022-09-13T10:30:25.229Z,6.10
2022-09-13T10:31:25.236Z,5.60
2022-09-13T10:32:25.230Z,5.90
2022-09-13T10:33:25.205Z,5.60
2022-09-13T10:34:25.201Z,5.80
2022-09-13T10:35:25.203Z,6.00
2022-09-13T10:36:50.637Z,5.80
2022-09-13T10:37:25.202Z,5.70
2022-09-13T10:38:25.199Z,5.60
2022-09-13T10:39:25.198Z,5.90
2022-09-13T10:40:25.227Z,5.60
2022-09-13T10:41:25.198Z,5.30
2022-09-13T10:42:25.192Z,5.20
2022-09-13T10:43:25.191Z,5.40
2022-09-13T10:44:25.193Z,5.80
2022-09-13T10:45:25.188Z,6.10
2022-09-13T10:46:25.199Z,5.80
2022-09-13T10:47:25.182Z,6.00
2022-09-13T10:48:25.184Z,5.80
2022-09-13T10:49:25.182Z,5.70
2022-09-13T10:50:25.181Z,6.00
2022-09-13T10:51:25.181Z,6.10
2022-09-13T10:52:25.180Z,6.10
2022-09-13T10:53:25.176Z,6.20
2022-09-13T10:54:25.178Z,6.00
2022-09-13T10:55:25.180Z,6.30
2022-09-13T10:56:25.174Z,6.60
2022-09-13T10:57:25.171Z,6.30
2022-09-13T10:58:25.178Z,6.30
2022-09-13T10:59:25.170Z,6.40
2022-09-13T11:00:25.168Z,6.20
2022-09-13T11:01:25.191Z,6.30
2022-09-13T11:02:25.162Z,6.40
2022-09-13T11:03:25.164Z,6.30
2022-09-13T11:04:25.175Z,6.40
2022-09-13T11:05:25.160Z,6.30
2022-09-13T11:06:25.160Z,6.30
2022-09-13T11:07:25.156Z,6.40
2022-09-13T11:08:25.158Z,6.10
2022-09-13T11:09:25.159Z,6.40
2022-09-13T11:10:25.154Z,6.90
2022-09-13T11:11:25.155Z,6.50
2022-09-13T11:12:25.157Z,6.10
2022-09-13T11:13:25.151Z,6.30
2022-09-13T11:14:25.155Z,6.60
2022-09-13T11:15:25.147Z,6.30
2022-09-13T11:16:25.187Z,6.70
2022-09-13T11:17:25.140Z,6.20
2022-09-13T11:18:25.144Z,6.40
2022-09-13T11:19:25.144Z,6.30
2022-09-13T11:20:25.166Z,6.40
2022-09-13T11:21:25.137Z,6.20
2022-09-13T11:22:25.133Z,6.90
2022-09-13T11:23:25.133Z,7.00
2022-09-13T11:24:25.138Z,6.90
2022-09-13T11:25:25.130Z,7.10
2022-09-13T11:26:25.127Z,6.80
2022-09-13T11:27:25.127Z,7.30
2022-09-13T11:28:25.129Z,7.30
2022-09-13T11:29:25.121Z,6.90
2022-09-13T11:30:29.662Z,7.10
2022-09-13T11:31:25.145Z,7.00
2022-09-13T11:32:25.120Z,6.80
2022-09-13T11:33:25.124Z,6.80
2022-09-13T11:34:25.114Z,6.80
2022-09-13T11:35:25.111Z,6.80
2022-09-13T11:36:25.110Z,6.90
2022-09-13T11:37:25.109Z,6.70
2022-09-13T11:38:25.106Z,6.80
2022-09-13T11:39:25.103Z,6.60
2022-09-13T11:40:25.164Z,6.90
2022-09-13T11:41:25.100Z,6.70
2022-09-13T11:42:25.098Z,6.60
2022-09-13T11:43:25.096Z,6.70
2022-09-13T11:44:25.094Z,6.70
2022-09-13T11:45:25.092Z,6.90
2022-09-13T11:46:25.088Z,7.00
2022-09-13T11:47:25.086Z,7.30
2022-09-13T11:48:25.087Z,7.10
2022-09-13T11:49:25.080Z,6.80
2022-09-13T11:50:25.079Z,7.20
2022-09-13T11:51:25.079Z,6.90
2022-09-13T11:52:25.078Z,6.90
2022-09-13T11:53:29.864Z,6.50
2022-09-13T11:54:25.068Z,6.60
2022-09-13T11:55:25.066Z,6.60
2022-09-13T11:56:25.065Z,6.90
2022-09-13T11:57:25.063Z,6.50
2022-09-13T11:58:25.060Z,6.80
2022-09-13T11:59:25.058Z,6.80
2022-09-13T12:00:25.055Z,6.80
2022-09-13T12:01:25.055Z,6.50
2022-09-13T12:02:25.119Z,6.30
2022-09-13T12:03:25.135Z,7.10
2022-09-13T12:04:25.740Z,6.60
2022-09-13T12:05:25.054Z,6.70
2022-09-13T12:06:25.041Z,6.80
2022-09-13T12:07:25.037Z,6.90
2022-09-13T12:08:25.038Z,6.90
2022-09-13T12:09:25.042Z,7.10
2022-09-13T12:10:25.044Z,7.30
2022-09-13T12:11:25.031Z,7.40
2022-09-13T12:12:25.028Z,7.30
2022-09-13T12:13:25.027Z,7.50
2022-09-13T12:14:25.026Z,7.10
2022-09-13T12:15:25.021Z,7.10
2022-09-13T12:16:25.060Z,6.90
2022-09-13T12:17:25.020Z,7.10
2022-09-13T12:18:25.013Z,7.00
2022-09-13T12:19:25.010Z,7.40
2022-09-13T12:20:25.013Z,7.40
2022-09-13T12:21:25.009Z,7.40
2022-09-13T12:22:28.883Z,7.50
2022-09-13T12:23:25.004Z,7.20
2022-09-13T12:24:25.002Z,7.00
2022-09-13T12:25:25.000Z,7.00
2022-09-13T12:26:24.999Z,7.00
2022-09-13T12:27:24.996Z,6.90
2022-09-13T12:28:24.994Z,7.00
2022-09-13T12:29:24.993Z,6.90
2022-09-13T12:30:24.994Z,7.30
2022-09-13T12:31:25.055Z,7.30
2022-09-13T12:32:24.988Z,7.40
2022-09-13T12:33:24.987Z,7.40
2022-09-13T12:34:24.987Z,7.30
2022-09-13T12:35:24.981Z,7.20
2022-09-13T12:36:24.983Z,7.70
2022-09-13T12:37:24.981Z,7.40
2022-09-13T12:38:28.224Z,7.30
2022-09-13T12:39:24.984Z,7.20
2022-09-13T12:40:25.008Z,7.30
2022-09-13T12:41:24.971Z,7.30
2022-09-13T12:42:24.970Z,7.10
2022-09-13T12:43:24.965Z,6.90
2022-09-13T12:44:24.963Z,6.60
2022-09-13T12:45:25.006Z,6.40
2022-09-13T12:46:24.963Z,6.60
2022-09-13T12:47:25.087Z,6.40
2022-09-13T12:48:24.960Z,5.90
2022-09-13T12:49:24.960Z,6.20
2022-09-13T12:51:24.953Z,6.40
2022-09-13T12:52:24.953Z,6.20
2022-09-13T12:53:24.956Z,6.00
2022-09-13T12:54:24.953Z,5.10
2022-09-13T12:55:45.998Z,5.30
2022-09-13T12:56:24.950Z,5.30
2022-09-13T12:57:24.944Z,5.20
2022-09-13T12:58:24.946Z,5.30
2022-09-13T12:59:24.936Z,5.50
2022-09-13T13:00:24.939Z,5.50
2022-09-13T13:01:25.060Z,5.60
2022-09-13T13:02:24.937Z,5.30
2022-09-13T13:03:24.938Z,4.80
2022-09-13T13:04:24.935Z,4.80
2022-09-13T13:05:24.933Z,4.40
2022-09-13T13:06:33.106Z,4.50
2022-09-13T13:08:28.946Z,3.70
2022-09-13T13:09:29.209Z,3.20
2022-09-13T13:11:32.946Z,3.50
2022-09-13T13:12:32.939Z,3.50
2022-09-13T13:14:36.936Z,2.90
2022-09-13T13:15:36.935Z,2.50
2022-09-13T13:17:29.870Z,2.10
2022-09-13T13:18:29.919Z,2.10
2022-09-13T13:20:33.855Z,1.80
2022-09-13T13:21:33.847Z,1.60
2022-09-13T13:23:37.886Z,1.80
2022-09-13T13:24:37.829Z,1.60
2022-09-13T13:26:41.815Z,1.80
2022-09-13T13:27:46.283Z,1.80
2022-09-13T13:29:45.810Z,2.00
2022-09-13T13:30:45.799Z,2.00
2022-09-13T13:32:38.914Z,2.20
2022-09-13T13:33:38.968Z,2.10
2022-09-13T13:35:42.912Z,2.00
2022-09-13T13:36:42.907Z,2.30
2022-09-13T13:38:36.019Z,2.40
2022-09-13T13:39:36.010Z,2.40
2022-09-13T13:41:40.020Z,2.10
2022-09-13T13:42:40.015Z,2.30
2022-09-13T13:44:33.127Z,2.80
2022-09-13T13:45:33.162Z,2.70
2022-09-13T13:47:26.075Z,3.10
2022-09-13T13:48:26.064Z,3.00
2022-09-13T13:50:30.092Z,3.00
2022-09-13T13:51:30.053Z,3.10
2022-09-13T13:53:23.157Z,3.70
2022-09-13T13:54:23.151Z,3.60
2022-09-13T13:56:27.145Z,3.30
2022-09-13T13:57:27.140Z,3.20
2022-09-13T13:59:20.254Z,2.80
2022-09-13T14:00:20.242Z,2.70
2022-09-13T14:02:13.621Z,2.70